sensor_id;sensor_type;location;lat;lon;timestamp;P1;durP1;ratioP1;P2;durP2;ratioP2
60851;SDS011;48553;50.766;2.900;2023-01-15T00:04:28;7.50;;;1.00;;
60851;SDS011;48553;50.766;2.900;2023-01-15T00:07:29;10.75;;;1.58;;
60851;SDS011;48553;50.766;2.900;2023-01-15T00:10:30;5.63;;;1.25;;
60851;SDS011;48553;50.766;2.900;2023-01-15T00:13:31;7.63;;;1.38;;
60851;SDS011;48553;50.766;2.900;2023-01-15T00:16:31;5.50;;;0.80;;
60851;SDS011;48553;50.766;2.900;2023-01-15T00:19:31;5.50;;;1.05;;
60851;SDS011;48553;50.766;2.900;2023-01-15T00:22:32;6.22;;;1.05;;
60851;SDS011;48553;50.766;2.900;2023-01-15T00:25:32;8.38;;;1.08;;
60851;SDS011;48553;50.766;2.900;2023-01-15T00:35:33;10.35;;;1.42;;
60851;SDS011;48553;50.766;2.900;2023-01-15T00:38:33;7.10;;;1.02;;
60851;SDS011;48553;50.766;2.900;2023-01-15T00:41:34;8.05;;;1.30;;
60851;SDS011;48553;50.766;2.900;2023-01-15T00:44:34;8.02;;;1.10;;
60851;SDS011;48553;50.766;2.900;2023-01-15T00:47:35;7.43;;;1.20;;
60851;SDS011;48553;50.766;2.900;2023-01-15T00:50:39;7.20;;;1.20;;
60851;SDS011;48553;50.766;2.900;2023-01-15T00:53:39;10.30;;;1.50;;
60851;SDS011;48553;50.766;2.900;2023-01-15T00:56:40;10.48;;;1.33;;
60851;SDS011;48553;50.766;2.900;2023-01-15T00:59:40;7.93;;;1.25;;
60851;SDS011;48553;50.766;2.900;2023-01-15T01:02:41;7.50;;;1.10;;
60851;SDS011;48553;50.766;2.900;2023-01-15T01:05:41;8.35;;;1.25;;
60851;SDS011;48553;50.766;2.900;2023-01-15T01:08:42;10.15;;;0.98;;
60851;SDS011;48553;50.766;2.900;2023-01-15T01:11:45;8.50;;;1.02;;
60851;SDS011;48553;50.766;2.900;2023-01-15T01:14:45;9.55;;;1.25;;
60851;SDS011;48553;50.766;2.900;2023-01-15T01:17:46;7.60;;;0.95;;
60851;SDS011;48553;50.766;2.900;2023-01-15T01:20:46;6.70;;;0.98;;
60851;SDS011;48553;50.766;2.900;2023-01-15T01:23:47;6.55;;;1.20;;
60851;SDS011;48553;50.766;2.900;2023-01-15T01:26:48;8.25;;;0.90;;
60851;SDS011;48553;50.766;2.900;2023-01-15T01:29:49;3.70;;;1.08;;
60851;SDS011;48553;50.766;2.900;2023-01-15T01:32:50;9.27;;;1.30;;
60851;SDS011;48553;50.766;2.900;2023-01-15T01:35:50;7.43;;;1.02;;
60851;SDS011;48553;50.766;2.900;2023-01-15T01:38:50;6.63;;;0.95;;
60851;SDS011;48553;50.766;2.900;2023-01-15T01:41:51;7.18;;;1.00;;
60851;SDS011;48553;50.766;2.900;2023-01-15T01:48:01;7.47;;;1.00;;
60851;SDS011;48553;50.766;2.900;2023-01-15T01:51:05;8.75;;;1.13;;
60851;SDS011;48553;50.766;2.900;2023-01-15T01:54:06;11.57;;;0.95;;
60851;SDS011;48553;50.766;2.900;2023-01-15T01:57:08;10.80;;;1.25;;
60851;SDS011;48553;50.766;2.900;2023-01-15T02:00:09;7.78;;;0.90;;
60851;SDS011;48553;50.766;2.900;2023-01-15T02:03:11;10.57;;;1.23;;
60851;SDS011;48553;50.766;2.900;2023-01-15T02:06:12;6.65;;;0.95;;
60851;SDS011;48553;50.766;2.900;2023-01-15T02:09:14;5.07;;;1.17;;
60851;SDS011;48553;50.766;2.900;2023-01-15T02:12:58;5.78;;;1.10;;
60851;SDS011;48553;50.766;2.900;2023-01-15T02:28:23;6.93;;;1.00;;
60851;SDS011;48553;50.766;2.900;2023-01-15T02:31:35;7.75;;;1.00;;
60851;SDS011;48553;50.766;2.900;2023-01-15T02:34:38;7.90;;;0.90;;
60851;SDS011;48553;50.766;2.900;2023-01-15T02:37:46;5.13;;;0.98;;
60851;SDS011;48553;50.766;2.900;2023-01-15T02:40:51;8.18;;;0.88;;
60851;SDS011;48553;50.766;2.900;2023-01-15T02:43:55;6.43;;;0.90;;
60851;SDS011;48553;50.766;2.900;2023-01-15T02:46:57;6.53;;;0.80;;
60851;SDS011;48553;50.766;2.900;2023-01-15T02:49:59;6.75;;;1.02;;
60851;SDS011;48553;50.766;2.900;2023-01-15T02:53:05;6.90;;;0.75;;
60851;SDS011;48553;50.766;2.900;2023-01-15T02:56:11;6.78;;;0.80;;
60851;SDS011;48553;50.766;2.900;2023-01-15T02:59:17;5.38;;;0.88;;
60851;SDS011;48553;50.766;2.900;2023-01-15T03:02:22;5.72;;;0.90;;
60851;SDS011;48553;50.766;2.900;2023-01-15T03:05:37;5.82;;;0.82;;
60851;SDS011;48553;50.766;2.900;2023-01-15T03:08:40;8.70;;;1.00;;
60851;SDS011;48553;50.766;2.900;2023-01-15T03:11:46;5.68;;;0.70;;
60851;SDS011;48553;50.766;2.900;2023-01-15T03:15:01;4.40;;;0.70;;
60851;SDS011;48553;50.766;2.900;2023-01-15T03:18:06;4.03;;;0.60;;
60851;SDS011;48553;50.766;2.900;2023-01-15T03:21:10;5.07;;;0.75;;
60851;SDS011;48553;50.766;2.900;2023-01-15T03:24:17;6.13;;;0.70;;
60851;SDS011;48553;50.766;2.900;2023-01-15T03:27:27;5.97;;;0.50;;
60851;SDS011;48553;50.766;2.900;2023-01-15T03:30:28;4.20;;;0.60;;
60851;SDS011;48553;50.766;2.900;2023-01-15T03:33:28;7.05;;;0.85;;
60851;SDS011;48553;50.766;2.900;2023-01-15T03:36:29;7.90;;;0.85;;
60851;SDS011;48553;50.766;2.900;2023-01-15T03:39:29;5.93;;;0.80;;
60851;SDS011;48553;50.766;2.900;2023-01-15T03:42:49;6.22;;;0.60;;
60851;SDS011;48553;50.766;2.900;2023-01-15T03:59:03;5.03;;;0.85;;
60851;SDS011;48553;50.766;2.900;2023-01-15T04:02:11;6.85;;;0.98;;
60851;SDS011;48553;50.766;2.900;2023-01-15T04:05:13;6.80;;;0.90;;
60851;SDS011;48553;50.766;2.900;2023-01-15T04:08:15;6.53;;;0.80;;
60851;SDS011;48553;50.766;2.900;2023-01-15T04:11:20;3.65;;;0.80;;
60851;SDS011;48553;50.766;2.900;2023-01-15T04:14:22;4.05;;;0.73;;
60851;SDS011;48553;50.766;2.900;2023-01-15T04:17:22;7.90;;;1.00;;
60851;SDS011;48553;50.766;2.900;2023-01-15T04:20:23;7.07;;;1.00;;
60851;SDS011;48553;50.766;2.900;2023-01-15T04:23:23;5.65;;;0.60;;
60851;SDS011;48553;50.766;2.900;2023-01-15T04:26:23;6.55;;;1.02;;
60851;SDS011;48553;50.766;2.900;2023-01-15T04:29:24;4.30;;;1.00;;
60851;SDS011;48553;50.766;2.900;2023-01-15T04:32:25;6.22;;;0.90;;
60851;SDS011;48553;50.766;2.900;2023-01-15T04:35:26;6.32;;;1.05;;
60851;SDS011;48553;50.766;2.900;2023-01-15T04:38:26;6.03;;;1.00;;
60851;SDS011;48553;50.766;2.900;2023-01-15T04:41:27;7.18;;;1.08;;
60851;SDS011;48553;50.766;2.900;2023-01-15T04:44:46;8.20;;;1.15;;
60851;SDS011;48553;50.766;2.900;2023-01-15T04:47:46;8.48;;;1.23;;
60851;SDS011;48553;50.766;2.900;2023-01-15T04:50:47;8.40;;;1.15;;
60851;SDS011;48553;50.766;2.900;2023-01-15T04:53:48;10.25;;;1.20;;
60851;SDS011;48553;50.766;2.900;2023-01-15T04:56:50;6.15;;;0.80;;
60851;SDS011;48553;50.766;2.900;2023-01-15T04:59:52;8.07;;;0.98;;
60851;SDS011;48553;50.766;2.900;2023-01-15T05:02:52;6.30;;;0.82;;
60851;SDS011;48553;50.766;2.900;2023-01-15T05:05:52;8.18;;;1.30;;
60851;SDS011;48553;50.766;2.900;2023-01-15T05:08:53;6.05;;;0.90;;
60851;SDS011;48553;50.766;2.900;2023-01-15T05:11:53;4.72;;;0.77;;
60851;SDS011;48553;50.766;2.900;2023-01-15T05:14:54;7.90;;;1.13;;
60851;SDS011;48553;50.766;2.900;2023-01-15T05:17:55;8.60;;;1.13;;
60851;SDS011;48553;50.766;2.900;2023-01-15T05:20:55;4.90;;;0.80;;
60851;SDS011;48553;50.766;2.900;2023-01-15T05:23:56;5.78;;;1.08;;
60851;SDS011;48553;50.766;2.900;2023-01-15T05:26:57;10.07;;;1.25;;
60851;SDS011;48553;50.766;2.900;2023-01-15T05:29:57;8.23;;;1.00;;
60851;SDS011;48553;50.766;2.900;2023-01-15T05:32:58;5.47;;;1.05;;
60851;SDS011;48553;50.766;2.900;2023-01-15T05:36:06;9.57;;;1.05;;
60851;SDS011;48553;50.766;2.900;2023-01-15T05:39:08;3.20;;;0.93;;
60851;SDS011;48553;50.766;2.900;2023-01-15T05:42:09;4.75;;;0.80;;
60851;SDS011;48553;50.766;2.900;2023-01-15T05:45:09;5.63;;;0.90;;
60851;SDS011;48553;50.766;2.900;2023-01-15T05:48:10;5.55;;;0.80;;
60851;SDS011;48553;50.766;2.900;2023-01-15T05:51:10;6.75;;;0.90;;
60851;SDS011;48553;50.766;2.900;2023-01-15T05:54:12;6.95;;;0.75;;
60851;SDS011;48553;50.766;2.900;2023-01-15T05:57:14;6.57;;;0.70;;
60851;SDS011;48553;50.766;2.900;2023-01-15T06:00:15;4.15;;;0.63;;
60851;SDS011;48553;50.766;2.900;2023-01-15T06:03:16;9.48;;;1.00;;
60851;SDS011;48553;50.766;2.900;2023-01-15T06:06:17;6.63;;;0.90;;
60851;SDS011;48553;50.766;2.900;2023-01-15T06:09:18;3.10;;;0.50;;
60851;SDS011;48553;50.766;2.900;2023-01-15T06:12:19;7.10;;;0.75;;
60851;SDS011;48553;50.766;2.900;2023-01-15T06:15:19;6.28;;;0.98;;
60851;SDS011;48553;50.766;2.900;2023-01-15T06:18:21;9.02;;;1.00;;
60851;SDS011;48553;50.766;2.900;2023-01-15T06:21:22;6.93;;;0.90;;
60851;SDS011;48553;50.766;2.900;2023-01-15T06:24:23;4.93;;;0.82;;
60851;SDS011;48553;50.766;2.900;2023-01-15T06:27:23;7.85;;;0.80;;
60851;SDS011;48553;50.766;2.900;2023-01-15T06:30:23;7.50;;;0.93;;
60851;SDS011;48553;50.766;2.900;2023-01-15T06:33:24;5.88;;;1.20;;
60851;SDS011;48553;50.766;2.900;2023-01-15T06:36:25;6.20;;;1.10;;
60851;SDS011;48553;50.766;2.900;2023-01-15T06:39:26;5.35;;;0.82;;
60851;SDS011;48553;50.766;2.900;2023-01-15T06:42:27;7.53;;;1.08;;
60851;SDS011;48553;50.766;2.900;2023-01-15T06:45:45;4.03;;;1.00;;
60851;SDS011;48553;50.766;2.900;2023-01-15T06:49:24;8.73;;;1.30;;
60851;SDS011;48553;50.766;2.900;2023-01-15T06:52:26;6.63;;;0.88;;
60851;SDS011;48553;50.766;2.900;2023-01-15T06:55:27;5.43;;;0.85;;
60851;SDS011;48553;50.766;2.900;2023-01-15T06:58:27;6.88;;;0.93;;
60851;SDS011;48553;50.766;2.900;2023-01-15T07:01:28;6.15;;;0.77;;
60851;SDS011;48553;50.766;2.900;2023-01-15T07:04:29;5.22;;;0.90;;
60851;SDS011;48553;50.766;2.900;2023-01-15T07:07:31;4.40;;;0.85;;
60851;SDS011;48553;50.766;2.900;2023-01-15T07:10:34;6.22;;;1.00;;
60851;SDS011;48553;50.766;2.900;2023-01-15T07:13:35;6.70;;;0.90;;
60851;SDS011;48553;50.766;2.900;2023-01-15T07:16:36;6.47;;;1.02;;
60851;SDS011;48553;50.766;2.900;2023-01-15T07:19:36;4.75;;;0.82;;
60851;SDS011;48553;50.766;2.900;2023-01-15T07:22:37;6.47;;;1.00;;
60851;SDS011;48553;50.766;2.900;2023-01-15T07:25:37;9.88;;;1.10;;
60851;SDS011;48553;50.766;2.900;2023-01-15T07:28:38;9.63;;;0.95;;
60851;SDS011;48553;50.766;2.900;2023-01-15T07:31:38;6.63;;;1.25;;
60851;SDS011;48553;50.766;2.900;2023-01-15T07:34:39;6.70;;;0.90;;
60851;SDS011;48553;50.766;2.900;2023-01-15T07:37:40;8.15;;;1.10;;
60851;SDS011;48553;50.766;2.900;2023-01-15T07:40:43;8.10;;;0.85;;
60851;SDS011;48553;50.766;2.900;2023-01-15T07:43:43;8.80;;;1.02;;
60851;SDS011;48553;50.766;2.900;2023-01-15T07:47:02;6.45;;;0.95;;
60851;SDS011;48553;50.766;2.900;2023-01-15T07:50:26;6.47;;;1.10;;
60851;SDS011;48553;50.766;2.900;2023-01-15T07:53:26;5.40;;;0.95;;
60851;SDS011;48553;50.766;2.900;2023-01-15T07:56:27;7.75;;;1.20;;
60851;SDS011;48553;50.766;2.900;2023-01-15T07:59:27;4.90;;;0.90;;
60851;SDS011;48553;50.766;2.900;2023-01-15T08:02:28;5.68;;;1.10;;
60851;SDS011;48553;50.766;2.900;2023-01-15T08:05:28;7.10;;;1.17;;
60851;SDS011;48553;50.766;2.900;2023-01-15T08:08:29;5.53;;;0.90;;
60851;SDS011;48553;50.766;2.900;2023-01-15T08:11:29;6.53;;;1.00;;
60851;SDS011;48553;50.766;2.900;2023-01-15T08:14:50;8.48;;;0.95;;
60851;SDS011;48553;50.766;2.900;2023-01-15T08:18:10;7.70;;;1.10;;
60851;SDS011;48553;50.766;2.900;2023-01-15T08:21:13;5.95;;;0.93;;
60851;SDS011;48553;50.766;2.900;2023-01-15T08:24:14;7.35;;;1.15;;
60851;SDS011;48553;50.766;2.900;2023-01-15T08:27:14;7.13;;;0.98;;
60851;SDS011;48553;50.766;2.900;2023-01-15T08:30:16;6.10;;;0.93;;
60851;SDS011;48553;50.766;2.900;2023-01-15T08:33:21;6.03;;;1.00;;
60851;SDS011;48553;50.766;2.900;2023-01-15T08:36:22;5.75;;;0.88;;
60851;SDS011;48553;50.766;2.900;2023-01-15T08:39:22;4.85;;;0.70;;
60851;SDS011;48553;50.766;2.900;2023-01-15T08:42:23;5.05;;;0.82;;
60851;SDS011;48553;50.766;2.900;2023-01-15T08:45:23;6.47;;;0.93;;
60851;SDS011;48553;50.766;2.900;2023-01-15T08:48:24;4.53;;;0.80;;
60851;SDS011;48553;50.766;2.900;2023-01-15T08:51:24;5.53;;;0.80;;
60851;SDS011;48553;50.766;2.900;2023-01-15T08:54:25;8.15;;;1.02;;
60851;SDS011;48553;50.766;2.900;2023-01-15T08:57:25;5.65;;;0.90;;
60851;SDS011;48553;50.766;2.900;2023-01-15T09:00:26;5.53;;;0.85;;
60851;SDS011;48553;50.766;2.900;2023-01-15T09:03:26;5.25;;;0.68;;
60851;SDS011;48553;50.766;2.900;2023-01-15T09:06:27;2.55;;;0.50;;
60851;SDS011;48553;50.766;2.900;2023-01-15T09:09:27;4.05;;;0.68;;
60851;SDS011;48553;50.766;2.900;2023-01-15T09:12:28;3.85;;;0.70;;
60851;SDS011;48553;50.766;2.900;2023-01-15T09:15:29;3.60;;;0.63;;
60851;SDS011;48553;50.766;2.900;2023-01-15T09:18:31;3.13;;;0.77;;
60851;SDS011;48553;50.766;2.900;2023-01-15T09:21:32;3.95;;;0.80;;
60851;SDS011;48553;50.766;2.900;2023-01-15T09:24:33;5.10;;;0.82;;
60851;SDS011;48553;50.766;2.900;2023-01-15T09:27:34;6.15;;;0.70;;
60851;SDS011;48553;50.766;2.900;2023-01-15T09:30:34;5.13;;;0.65;;
60851;SDS011;48553;50.766;2.900;2023-01-15T09:33:35;4.45;;;0.80;;
60851;SDS011;48553;50.766;2.900;2023-01-15T09:36:35;3.38;;;0.68;;
60851;SDS011;48553;50.766;2.900;2023-01-15T09:39:36;5.28;;;0.90;;
60851;SDS011;48553;50.766;2.900;2023-01-15T09:42:49;4.72;;;1.00;;
60851;SDS011;48553;50.766;2.900;2023-01-15T09:45:57;4.43;;;0.98;;
60851;SDS011;48553;50.766;2.900;2023-01-15T09:55:46;5.43;;;1.10;;
60851;SDS011;48553;50.766;2.900;2023-01-15T09:58:49;4.55;;;0.70;;
60851;SDS011;48553;50.766;2.900;2023-01-15T10:01:51;2.78;;;0.75;;
60851;SDS011;48553;50.766;2.900;2023-01-15T10:04:53;6.03;;;0.98;;
60851;SDS011;48553;50.766;2.900;2023-01-15T10:11:20;5.32;;;0.90;;
60851;SDS011;48553;50.766;2.900;2023-01-15T10:18:14;5.18;;;1.20;;
60851;SDS011;48553;50.766;2.900;2023-01-15T10:24:43;7.72;;;1.02;;
60851;SDS011;48553;50.766;2.900;2023-01-15T10:27:54;6.40;;;1.00;;
60851;SDS011;48553;50.766;2.900;2023-01-15T10:31:07;8.05;;;1.13;;
60851;SDS011;48553;50.766;2.900;2023-01-15T10:41:05;5.60;;;1.10;;
60851;SDS011;48553;50.766;2.900;2023-01-15T10:44:17;6.68;;;1.05;;
60851;SDS011;48553;50.766;2.900;2023-01-15T10:47:25;7.40;;;1.17;;
60851;SDS011;48553;50.766;2.900;2023-01-15T10:50:31;3.42;;;0.98;;
60851;SDS011;48553;50.766;2.900;2023-01-15T10:56:54;5.00;;;0.65;;
60851;SDS011;48553;50.766;2.900;2023-01-15T11:00:07;4.07;;;0.77;;
60851;SDS011;48553;50.766;2.900;2023-01-15T11:03:11;8.55;;;1.00;;
60851;SDS011;48553;50.766;2.900;2023-01-15T11:06:18;6.55;;;0.80;;
60851;SDS011;48553;50.766;2.900;2023-01-15T11:09:20;3.78;;;0.93;;
60851;SDS011;48553;50.766;2.900;2023-01-15T11:12:30;2.72;;;0.82;;
60851;SDS011;48553;50.766;2.900;2023-01-15T11:15:49;4.00;;;0.77;;
60851;SDS011;48553;50.766;2.900;2023-01-15T11:19:23;4.18;;;0.88;;
60851;SDS011;48553;50.766;2.900;2023-01-15T11:22:37;3.20;;;0.65;;
60851;SDS011;48553;50.766;2.900;2023-01-15T11:25:38;3.28;;;0.65;;
60851;SDS011;48553;50.766;2.900;2023-01-15T11:28:46;4.00;;;0.80;;
60851;SDS011;48553;50.766;2.900;2023-01-15T11:31:48;6.13;;;0.77;;
60851;SDS011;48553;50.766;2.900;2023-01-15T11:34:55;3.72;;;0.65;;
60851;SDS011;48553;50.766;2.900;2023-01-15T11:38:11;2.45;;;0.65;;
60851;SDS011;48553;50.766;2.900;2023-01-15T11:44:55;7.22;;;0.90;;
60851;SDS011;48553;50.766;2.900;2023-01-15T11:48:22;5.45;;;0.93;;
60851;SDS011;48553;50.766;2.900;2023-01-15T11:51:43;4.80;;;0.90;;
60851;SDS011;48553;50.766;2.900;2023-01-15T11:54:48;5.57;;;0.80;;
60851;SDS011;48553;50.766;2.900;2023-01-15T11:57:53;6.68;;;1.00;;
60851;SDS011;48553;50.766;2.900;2023-01-15T12:00:56;4.65;;;1.10;;
60851;SDS011;48553;50.766;2.900;2023-01-15T12:04:00;6.22;;;0.90;;
60851;SDS011;48553;50.766;2.900;2023-01-15T12:07:05;4.55;;;0.65;;
60851;SDS011;48553;50.766;2.900;2023-01-15T12:10:20;3.13;;;0.80;;
60851;SDS011;48553;50.766;2.900;2023-01-15T12:13:55;4.65;;;0.73;;
60851;SDS011;48553;50.766;2.900;2023-01-15T12:17:20;4.90;;;0.70;;
60851;SDS011;48553;50.766;2.900;2023-01-15T12:23:55;2.55;;;0.57;;
60851;SDS011;48553;50.766;2.900;2023-01-15T12:37:05;3.75;;;0.50;;
60851;SDS011;48553;50.766;2.900;2023-01-15T12:40:23;2.95;;;0.60;;
60851;SDS011;48553;50.766;2.900;2023-01-15T12:43:45;2.10;;;0.63;;
60851;SDS011;48553;50.766;2.900;2023-01-15T12:46:49;3.33;;;0.60;;
60851;SDS011;48553;50.766;2.900;2023-01-15T12:49:52;3.13;;;0.73;;
60851;SDS011;48553;50.766;2.900;2023-01-15T12:56:10;2.53;;;0.85;;
60851;SDS011;48553;50.766;2.900;2023-01-15T12:59:19;2.00;;;0.85;;
60851;SDS011;48553;50.766;2.900;2023-01-15T13:06:00;3.88;;;0.90;;
60851;SDS011;48553;50.766;2.900;2023-01-15T13:09:12;3.00;;;0.80;;
60851;SDS011;48553;50.766;2.900;2023-01-15T13:12:14;2.67;;;0.93;;
60851;SDS011;48553;50.766;2.900;2023-01-15T13:15:16;3.70;;;1.00;;
60851;SDS011;48553;50.766;2.900;2023-01-15T13:21:46;5.10;;;1.27;;
60851;SDS011;48553;50.766;2.900;2023-01-15T13:24:59;5.38;;;1.08;;
60851;SDS011;48553;50.766;2.900;2023-01-15T13:31:20;4.75;;;1.20;;
60851;SDS011;48553;50.766;2.900;2023-01-15T13:34:54;2.22;;;0.80;;
60851;SDS011;48553;50.766;2.900;2023-01-15T13:38:02;4.95;;;1.25;;
60851;SDS011;48553;50.766;2.900;2023-01-15T13:41:11;5.13;;;1.23;;
60851;SDS011;48553;50.766;2.900;2023-01-15T13:44:43;5.38;;;1.35;;
60851;SDS011;48553;50.766;2.900;2023-01-15T13:47:47;7.35;;;1.50;;
60851;SDS011;48553;50.766;2.900;2023-01-15T13:50:52;3.10;;;1.10;;
60851;SDS011;48553;50.766;2.900;2023-01-15T13:57:08;6.70;;;1.33;;
60851;SDS011;48553;50.766;2.900;2023-01-15T14:03:30;7.57;;;1.70;;
60851;SDS011;48553;50.766;2.900;2023-01-15T14:09:39;6.15;;;1.45;;
60851;SDS011;48553;50.766;2.900;2023-01-15T14:13:06;4.63;;;1.20;;
60851;SDS011;48553;50.766;2.900;2023-01-15T14:16:26;5.10;;;1.15;;
60851;SDS011;48553;50.766;2.900;2023-01-15T14:26:29;4.22;;;1.10;;
60851;SDS011;48553;50.766;2.900;2023-01-15T14:33:16;5.25;;;1.00;;
60851;SDS011;48553;50.766;2.900;2023-01-15T14:36:24;6.82;;;1.10;;
60851;SDS011;48553;50.766;2.900;2023-01-15T14:39:41;4.47;;;0.90;;
60851;SDS011;48553;50.766;2.900;2023-01-15T14:42:49;3.30;;;0.82;;
60851;SDS011;48553;50.766;2.900;2023-01-15T14:46:11;4.55;;;0.85;;
60851;SDS011;48553;50.766;2.900;2023-01-15T14:49:43;2.47;;;0.52;;
60851;SDS011;48553;50.766;2.900;2023-01-15T14:52:49;3.30;;;0.85;;
60851;SDS011;48553;50.766;2.900;2023-01-15T14:55:55;3.47;;;0.68;;
60851;SDS011;48553;50.766;2.900;2023-01-15T14:59:08;2.90;;;0.60;;
60851;SDS011;48553;50.766;2.900;2023-01-15T15:02:24;2.25;;;0.50;;
60851;SDS011;48553;50.766;2.900;2023-01-15T15:05:33;4.00;;;0.73;;
60851;SDS011;48553;50.766;2.900;2023-01-15T15:08:34;1.08;;;0.30;;
60851;SDS011;48553;50.766;2.900;2023-01-15T15:11:37;2.38;;;0.52;;
60851;SDS011;48553;50.766;2.900;2023-01-15T15:18:33;1.10;;;0.40;;
60851;SDS011;48553;50.766;2.900;2023-01-15T15:21:57;3.55;;;0.60;;
60851;SDS011;48553;50.766;2.900;2023-01-15T15:25:05;2.35;;;0.50;;
60851;SDS011;48553;50.766;2.900;2023-01-15T15:28:09;5.40;;;0.70;;
60851;SDS011;48553;50.766;2.900;2023-01-15T15:31:12;3.22;;;0.70;;
60851;SDS011;48553;50.766;2.900;2023-01-15T15:34:19;3.35;;;0.90;;
60851;SDS011;48553;50.766;2.900;2023-01-15T15:37:23;3.47;;;0.88;;
60851;SDS011;48553;50.766;2.900;2023-01-15T15:40:32;3.17;;;0.90;;
60851;SDS011;48553;50.766;2.900;2023-01-15T15:43:48;3.65;;;0.80;;
60851;SDS011;48553;50.766;2.900;2023-01-15T15:47:20;2.42;;;0.70;;
60851;SDS011;48553;50.766;2.900;2023-01-15T15:50:41;4.82;;;0.80;;
60851;SDS011;48553;50.766;2.900;2023-01-15T15:53:41;3.45;;;0.80;;
60851;SDS011;48553;50.766;2.900;2023-01-15T15:56:43;3.45;;;0.70;;
60851;SDS011;48553;50.766;2.900;2023-01-15T15:59:50;7.00;;;0.70;;
60851;SDS011;48553;50.766;2.900;2023-01-15T16:02:51;2.42;;;0.60;;
60851;SDS011;48553;50.766;2.900;2023-01-15T16:06:04;4.28;;;0.60;;
60851;SDS011;48553;50.766;2.900;2023-01-15T16:09:07;2.67;;;0.70;;
60851;SDS011;48553;50.766;2.900;2023-01-15T16:12:09;2.33;;;0.60;;
60851;SDS011;48553;50.766;2.900;2023-01-15T16:15:19;3.00;;;0.55;;
60851;SDS011;48553;50.766;2.900;2023-01-15T16:18:24;2.53;;;0.40;;
60851;SDS011;48553;50.766;2.900;2023-01-15T16:24:53;2.97;;;0.50;;
60851;SDS011;48553;50.766;2.900;2023-01-15T16:27:55;2.40;;;0.50;;
60851;SDS011;48553;50.766;2.900;2023-01-15T16:31:00;2.63;;;0.52;;
60851;SDS011;48553;50.766;2.900;2023-01-15T16:34:01;3.80;;;0.65;;
60851;SDS011;48553;50.766;2.900;2023-01-15T16:37:22;3.17;;;0.88;;
60851;SDS011;48553;50.766;2.900;2023-01-15T16:43:48;2.90;;;0.60;;
60851;SDS011;48553;50.766;2.900;2023-01-15T16:46:52;2.35;;;0.70;;
60851;SDS011;48553;50.766;2.900;2023-01-15T16:59:52;3.35;;;1.00;;
60851;SDS011;48553;50.766;2.900;2023-01-15T17:02:54;3.05;;;1.00;;
60851;SDS011;48553;50.766;2.900;2023-01-15T17:05:59;7.20;;;1.30;;
60851;SDS011;48553;50.766;2.900;2023-01-15T17:09:05;3.97;;;1.13;;
60851;SDS011;48553;50.766;2.900;2023-01-15T17:12:06;4.60;;;1.00;;
60851;SDS011;48553;50.766;2.900;2023-01-15T17:18:25;4.38;;;1.17;;
60851;SDS011;48553;50.766;2.900;2023-01-15T17:21:26;3.85;;;1.20;;
60851;SDS011;48553;50.766;2.900;2023-01-15T17:24:28;2.97;;;1.02;;
60851;SDS011;48553;50.766;2.900;2023-01-15T17:27:29;10.45;;;1.20;;
60851;SDS011;48553;50.766;2.900;2023-01-15T17:30:29;5.85;;;1.20;;
60851;SDS011;48553;50.766;2.900;2023-01-15T17:33:31;4.45;;;1.20;;
60851;SDS011;48553;50.766;2.900;2023-01-15T17:36:31;4.38;;;1.30;;
60851;SDS011;48553;50.766;2.900;2023-01-15T17:39:33;4.22;;;1.15;;
60851;SDS011;48553;50.766;2.900;2023-01-15T17:42:33;3.67;;;1.13;;
60851;SDS011;48553;50.766;2.900;2023-01-15T17:45:34;3.97;;;1.40;;
60851;SDS011;48553;50.766;2.900;2023-01-15T17:48:34;6.35;;;1.48;;
60851;SDS011;48553;50.766;2.900;2023-01-15T17:51:35;4.72;;;1.45;;
60851;SDS011;48553;50.766;2.900;2023-01-15T17:54:35;4.22;;;1.30;;
60851;SDS011;48553;50.766;2.900;2023-01-15T17:57:54;2.78;;;0.98;;
60851;SDS011;48553;50.766;2.900;2023-01-15T18:01:16;4.15;;;1.00;;
60851;SDS011;48553;50.766;2.900;2023-01-15T18:04:41;2.60;;;1.00;;
60851;SDS011;48553;50.766;2.900;2023-01-15T18:08:04;3.08;;;0.75;;
60851;SDS011;48553;50.766;2.900;2023-01-15T18:11:09;4.55;;;0.95;;
60851;SDS011;48553;50.766;2.900;2023-01-15T18:14:09;4.22;;;1.00;;
60851;SDS011;48553;50.766;2.900;2023-01-15T18:17:10;4.88;;;0.88;;
60851;SDS011;48553;50.766;2.900;2023-01-15T18:20:10;2.28;;;0.95;;
60851;SDS011;48553;50.766;2.900;2023-01-15T18:23:11;2.05;;;0.80;;
60851;SDS011;48553;50.766;2.900;2023-01-15T18:26:11;2.90;;;0.65;;
60851;SDS011;48553;50.766;2.900;2023-01-15T18:29:12;3.15;;;0.90;;
60851;SDS011;48553;50.766;2.900;2023-01-15T18:32:12;1.20;;;0.60;;
60851;SDS011;48553;50.766;2.900;2023-01-15T18:35:13;2.25;;;0.77;;
60851;SDS011;48553;50.766;2.900;2023-01-15T18:38:13;3.95;;;0.60;;
60851;SDS011;48553;50.766;2.900;2023-01-15T18:41:18;2.47;;;0.63;;
60851;SDS011;48553;50.766;2.900;2023-01-15T18:44:43;1.45;;;0.60;;
60851;SDS011;48553;50.766;2.900;2023-01-15T18:48:02;2.88;;;0.60;;
60851;SDS011;48553;50.766;2.900;2023-01-15T18:51:08;4.25;;;0.50;;
60851;SDS011;48553;50.766;2.900;2023-01-15T18:54:09;2.58;;;0.60;;
60851;SDS011;48553;50.766;2.900;2023-01-15T18:57:11;3.83;;;0.60;;
60851;SDS011;48553;50.766;2.900;2023-01-15T19:00:12;1.52;;;0.60;;
60851;SDS011;48553;50.766;2.900;2023-01-15T19:03:12;3.08;;;0.70;;
60851;SDS011;48553;50.766;2.900;2023-01-15T19:06:13;6.47;;;0.77;;
60851;SDS011;48553;50.766;2.900;2023-01-15T19:09:13;4.82;;;0.90;;
60851;SDS011;48553;50.766;2.900;2023-01-15T19:12:15;3.03;;;0.90;;
60851;SDS011;48553;50.766;2.900;2023-01-15T19:15:17;2.85;;;0.90;;
60851;SDS011;48553;50.766;2.900;2023-01-15T19:18:37;3.25;;;0.90;;
60851;SDS011;48553;50.766;2.900;2023-01-15T19:21:40;3.80;;;1.00;;
60851;SDS011;48553;50.766;2.900;2023-01-15T19:24:41;3.85;;;0.80;;
60851;SDS011;48553;50.766;2.900;2023-01-15T19:27:41;2.80;;;0.65;;
60851;SDS011;48553;50.766;2.900;2023-01-15T19:30:42;4.97;;;0.80;;
60851;SDS011;48553;50.766;2.900;2023-01-15T19:34:04;4.03;;;0.82;;
60851;SDS011;48553;50.766;2.900;2023-01-15T19:37:07;3.60;;;0.98;;
60851;SDS011;48553;50.766;2.900;2023-01-15T19:40:09;6.03;;;1.15;;
60851;SDS011;48553;50.766;2.900;2023-01-15T19:43:21;4.13;;;0.90;;
60851;SDS011;48553;50.766;2.900;2023-01-15T19:46:40;2.00;;;0.70;;
60851;SDS011;48553;50.766;2.900;2023-01-15T19:50:00;2.30;;;0.70;;
60851;SDS011;48553;50.766;2.900;2023-01-15T19:53:18;5.28;;;0.90;;
60851;SDS011;48553;50.766;2.900;2023-01-15T19:56:19;3.22;;;1.00;;
60851;SDS011;48553;50.766;2.900;2023-01-15T19:59:19;2.85;;;0.68;;
60851;SDS011;48553;50.766;2.900;2023-01-15T20:02:20;2.35;;;0.70;;
60851;SDS011;48553;50.766;2.900;2023-01-15T20:05:21;2.97;;;0.70;;
60851;SDS011;48553;50.766;2.900;2023-01-15T20:08:22;3.20;;;0.68;;
60851;SDS011;48553;50.766;2.900;2023-01-15T20:11:23;2.83;;;0.70;;
60851;SDS011;48553;50.766;2.900;2023-01-15T20:14:43;4.15;;;0.90;;
60851;SDS011;48553;50.766;2.900;2023-01-15T20:17:44;1.77;;;0.70;;
60851;SDS011;48553;50.766;2.900;2023-01-15T20:20:44;3.30;;;0.90;;
60851;SDS011;48553;50.766;2.900;2023-01-15T20:23:45;2.60;;;0.80;;
60851;SDS011;48553;50.766;2.900;2023-01-15T20:26:45;2.38;;;0.80;;
60851;SDS011;48553;50.766;2.900;2023-01-15T20:29:46;3.42;;;0.70;;
60851;SDS011;48553;50.766;2.900;2023-01-15T20:32:55;2.47;;;0.85;;
60851;SDS011;48553;50.766;2.900;2023-01-15T20:36:02;3.80;;;1.17;;
60851;SDS011;48553;50.766;2.900;2023-01-15T20:39:03;4.75;;;1.10;;
60851;SDS011;48553;50.766;2.900;2023-01-15T20:42:04;5.85;;;1.38;;
60851;SDS011;48553;50.766;2.900;2023-01-15T20:45:23;8.32;;;1.52;;
60851;SDS011;48553;50.766;2.900;2023-01-15T20:48:24;3.95;;;1.35;;
60851;SDS011;48553;50.766;2.900;2023-01-15T20:51:43;3.47;;;1.45;;
60851;SDS011;48553;50.766;2.900;2023-01-15T20:54:44;7.45;;;1.33;;
60851;SDS011;48553;50.766;2.900;2023-01-15T20:57:45;5.95;;;1.40;;